createdAt,value
2018-01-18T00:00:14.061Z,933.09
2018-01-18T00:01:14.053Z,933.02
2018-01-18T00:02:14.046Z,932.99
2018-01-18T00:03:14.038Z,933.04
2018-01-18T00:04:14.032Z,933.08
2018-01-18T00:05:14.022Z,933.01
2018-01-18T00:06:14.014Z,933.08
2018-01-18T00:07:14.005Z,933.02
2018-01-18T00:08:13.996Z,933.05
2018-01-18T00:09:13.989Z,933.09
2018-01-18T00:10:13.981Z,932.96
2018-01-18T00:11:13.972Z,933.01
2018-01-18T00:12:13.964Z,933.01
2018-01-18T00:13:13.959Z,932.98
2018-01-18T00:14:13.950Z,933.04
2018-01-18T00:15:13.939Z,932.98
2018-01-18T00:16:13.932Z,933.03
2018-01-18T00:17:13.925Z,932.95
2018-01-18T00:18:13.917Z,933.05
2018-01-18T00:19:13.908Z,932.96
2018-01-18T00:20:13.900Z,933.03
2018-01-18T00:21:13.894Z,933.06
2018-01-18T00:22:13.885Z,933.02
2018-01-18T00:23:13.876Z,932.92
2018-01-18T00:24:13.868Z,932.86
2018-01-18T00:25:13.862Z,933.07
2018-01-18T00:26:13.854Z,933.05
2018-01-18T00:27:13.844Z,933.14
2018-01-18T00:28:13.837Z,933.10
2018-01-18T00:29:13.830Z,933.13
2018-01-18T00:30:13.823Z,933.21
2018-01-18T00:31:13.813Z,933.09
2018-01-18T00:32:13.808Z,933.15
2018-01-18T00:33:13.799Z,933.04
2018-01-18T00:34:13.792Z,933.10
2018-01-18T00:35:13.783Z,933.03
2018-01-18T00:36:13.776Z,933.02
2018-01-18T00:37:13.768Z,933.02
2018-01-18T00:38:13.759Z,933.03
2018-01-18T00:39:13.752Z,932.98
2018-01-18T00:40:13.744Z,932.92
2018-01-18T00:41:13.735Z,932.92
2018-01-18T00:42:13.727Z,932.92
2018-01-18T00:43:13.719Z,932.86
2018-01-18T00:44:13.713Z,932.79
2018-01-18T00:45:13.704Z,932.80
2018-01-18T00:46:13.697Z,932.83
2018-01-18T00:47:13.689Z,932.83
2018-01-18T00:48:13.680Z,932.84
2018-01-18T00:49:13.673Z,932.85
2018-01-18T00:50:13.665Z,932.82
2018-01-18T00:51:13.657Z,932.80
2018-01-18T00:52:13.649Z,932.74
2018-01-18T00:53:13.642Z,932.76
2018-01-18T00:54:13.634Z,932.79
2018-01-18T00:55:13.625Z,932.64
2018-01-18T00:56:13.618Z,932.62
2018-01-18T00:57:13.610Z,932.65
2018-01-18T00:58:13.602Z,932.69
2018-01-18T00:59:13.594Z,932.76
2018-01-18T01:00:13.586Z,932.78
2018-01-18T01:01:13.578Z,932.78
2018-01-18T01:02:13.572Z,932.78
2018-01-18T01:03:13.564Z,932.74
2018-01-18T01:04:13.556Z,932.82
2018-01-18T01:05:13.548Z,932.74
2018-01-18T01:06:13.545Z,932.67
2018-01-18T01:07:13.531Z,932.63
2018-01-18T01:08:13.525Z,932.74
2018-01-18T01:09:13.516Z,932.75
2018-01-18T01:10:13.509Z,932.71
2018-01-18T01:11:13.500Z,932.67
2018-01-18T01:12:13.493Z,932.68
2018-01-18T01:13:13.486Z,932.70
2018-01-18T01:14:13.478Z,932.77
2018-01-18T01:15:13.469Z,932.74
2018-01-18T01:16:13.462Z,932.83
2018-01-18T01:17:13.454Z,932.77
2018-01-18T01:18:13.447Z,932.66
2018-01-18T01:19:13.438Z,932.76
2018-01-18T01:20:13.430Z,932.77
2018-01-18T01:21:13.423Z,932.70
2018-01-18T01:22:13.416Z,932.73
2018-01-18T01:23:13.407Z,932.80
2018-01-18T01:24:13.401Z,932.78
2018-01-18T01:25:13.393Z,932.73
2018-01-18T01:26:13.386Z,932.56
2018-01-18T01:27:13.377Z,932.70
2018-01-18T01:28:13.368Z,932.60
2018-01-18T01:29:13.361Z,932.72
2018-01-18T01:30:13.354Z,932.72
2018-01-18T01:31:13.345Z,932.84
2018-01-18T01:32:13.337Z,932.81
2018-01-18T01:33:13.331Z,932.81
2018-01-18T01:34:13.324Z,932.76
2018-01-18T01:35:13.314Z,932.75
2018-01-18T01:36:13.306Z,932.84
2018-01-18T01:37:13.299Z,932.77
2018-01-18T01:38:13.293Z,932.84
2018-01-18T01:39:13.285Z,932.66
2018-01-18T01:40:13.276Z,932.74
2018-01-18T01:41:13.269Z,932.88
2018-01-18T01:42:13.261Z,932.94
2018-01-18T01:43:13.252Z,932.78
2018-01-18T01:44:13.246Z,932.90
2018-01-18T01:45:13.237Z,932.91
2018-01-18T01:46:13.233Z,932.87
2018-01-18T01:47:13.224Z,932.98
2018-01-18T01:48:13.217Z,932.99
2018-01-18T01:49:13.208Z,932.93
2018-01-18T01:50:13.202Z,932.86
2018-01-18T01:51:13.192Z,932.84
2018-01-18T01:52:13.184Z,932.89
2018-01-18T01:53:13.178Z,932.85
2018-01-18T01:54:13.171Z,932.86
2018-01-18T01:55:13.162Z,932.83
2018-01-18T01:56:13.154Z,932.92
2018-01-18T01:57:13.183Z,932.91
2018-01-18T01:58:13.141Z,932.87
2018-01-18T01:59:13.132Z,932.88
2018-01-18T02:00:13.125Z,932.79
2018-01-18T02:01:13.118Z,932.86
2018-01-18T02:02:13.111Z,932.87
2018-01-18T02:03:13.102Z,932.85
2018-01-18T02:04:13.094Z,932.72
2018-01-18T02:05:13.086Z,932.76
2018-01-18T02:06:13.080Z,932.71
2018-01-18T02:07:13.072Z,932.62
2018-01-18T02:08:13.066Z,932.60
2018-01-18T02:09:13.058Z,932.69
2018-01-18T02:10:13.050Z,932.59
2018-01-18T02:11:13.042Z,932.70
2018-01-18T02:12:13.035Z,932.59
2018-01-18T02:13:13.027Z,932.56
2018-01-18T02:14:13.020Z,932.57
2018-01-18T02:15:13.011Z,932.57
2018-01-18T02:16:13.004Z,932.57
2018-01-18T02:17:12.996Z,932.39
2018-01-18T02:18:12.988Z,932.49
2018-01-18T02:19:12.981Z,932.70
2018-01-18T02:20:12.974Z,932.77
2018-01-18T02:21:12.971Z,932.69
2018-01-18T02:22:12.960Z,932.75
2018-01-18T02:23:12.951Z,932.87
2018-01-18T02:24:12.943Z,932.81
2018-01-18T02:25:12.937Z,932.91
2018-01-18T02:26:12.929Z,932.93
2018-01-18T02:27:12.921Z,932.96
2018-01-18T02:28:12.913Z,932.96
2018-01-18T02:29:12.905Z,932.94
2018-01-18T02:30:12.898Z,932.98
2018-01-18T02:31:12.888Z,932.93
2018-01-18T02:32:12.883Z,932.91
2018-01-18T02:33:12.876Z,932.96
2018-01-18T02:34:12.868Z,932.89
2018-01-18T02:35:12.860Z,932.86
2018-01-18T02:36:12.852Z,932.77
2018-01-18T02:37:12.845Z,932.88
2018-01-18T02:38:12.837Z,932.78
2018-01-18T02:39:12.863Z,932.80
2018-01-18T02:40:12.821Z,932.86
2018-01-18T02:41:12.813Z,932.92
2018-01-18T02:42:12.804Z,932.77
2018-01-18T02:43:12.797Z,932.78
2018-01-18T02:44:12.789Z,932.71
2018-01-18T02:45:12.782Z,932.72
2018-01-18T02:46:12.774Z,932.65
2018-01-18T02:47:12.765Z,932.69
2018-01-18T02:48:12.758Z,932.71
2018-01-18T02:49:12.750Z,932.54
2018-01-18T02:50:12.744Z,932.53
2018-01-18T02:51:12.734Z,932.56
2018-01-18T02:52:12.727Z,932.65
2018-01-18T02:53:12.718Z,932.58
2018-01-18T02:54:12.712Z,932.57
2018-01-18T02:55:12.704Z,932.52
2018-01-18T02:56:12.700Z,932.50
2018-01-18T02:57:12.689Z,932.46
2018-01-18T02:58:12.680Z,932.41
2018-01-18T02:59:12.673Z,932.39
2018-01-18T03:00:12.665Z,932.37
2018-01-18T03:01:12.658Z,932.46
2018-01-18T03:02:12.650Z,932.37
2018-01-18T03:03:12.640Z,932.36
2018-01-18T03:04:12.634Z,932.38
2018-01-18T03:05:12.626Z,932.35
2018-01-18T03:06:12.618Z,932.33
2018-01-18T03:07:12.610Z,932.33
2018-01-18T03:08:12.604Z,932.35
2018-01-18T03:09:12.596Z,932.24
2018-01-18T03:10:12.589Z,932.21
2018-01-18T03:11:12.580Z,932.28
2018-01-18T03:12:12.572Z,932.23
2018-01-18T03:13:12.565Z,932.20
2018-01-18T03:14:12.557Z,932.26
2018-01-18T03:15:12.548Z,932.28
2018-01-18T03:16:12.542Z,932.19
2018-01-18T03:17:12.533Z,932.17
2018-01-18T03:18:12.526Z,932.19
2018-01-18T03:19:12.520Z,932.20
2018-01-18T03:20:12.511Z,932.16
2018-01-18T03:21:12.504Z,932.19
2018-01-18T03:22:12.496Z,932.11
2018-01-18T03:23:12.487Z,932.03
2018-01-18T03:24:12.480Z,932.15
2018-01-18T03:25:12.472Z,932.22
2018-01-18T03:26:12.467Z,932.16
2018-01-18T03:27:12.456Z,932.12
2018-01-18T03:28:12.456Z,932.03
2018-01-18T03:29:12.450Z,932.11
2018-01-18T03:30:12.436Z,932.03
2018-01-18T03:31:12.428Z,932.01
2018-01-18T03:32:12.421Z,931.92
2018-01-18T03:33:12.413Z,931.96
2018-01-18T03:34:12.406Z,931.89
2018-01-18T03:35:12.398Z,931.89
2018-01-18T03:36:12.391Z,931.95
2018-01-18T03:37:12.384Z,931.96
2018-01-18T03:38:12.377Z,931.86
2018-01-18T03:39:12.368Z,931.93
2018-01-18T03:40:12.361Z,931.90
2018-01-18T03:41:12.354Z,931.79
2018-01-18T03:42:12.346Z,931.83
2018-01-18T03:43:12.340Z,931.72
2018-01-18T03:44:12.333Z,931.69
2018-01-18T03:45:12.326Z,931.73
2018-01-18T03:46:12.319Z,931.76
2018-01-18T03:47:12.310Z,931.70
2018-01-18T03:48:12.305Z,931.59
2018-01-18T03:49:12.296Z,931.53
2018-01-18T03:50:12.289Z,931.65
2018-01-18T03:51:12.282Z,931.53
2018-01-18T03:52:12.274Z,931.51
2018-01-18T03:53:12.268Z,931.50
2018-01-18T03:54:12.261Z,931.52
2018-01-18T03:55:12.253Z,931.55
2018-01-18T03:56:12.244Z,931.57
2018-01-18T03:57:12.238Z,931.64
2018-01-18T03:58:12.231Z,931.50
2018-01-18T03:59:12.223Z,931.52
2018-01-18T04:00:12.218Z,931.51
2018-01-18T04:01:12.212Z,931.57
2018-01-18T04:02:12.202Z,931.54
2018-01-18T04:03:12.196Z,931.55
2018-01-18T04:04:12.193Z,931.52
2018-01-18T04:05:12.183Z,931.47
2018-01-18T04:06:12.176Z,931.50
2018-01-18T04:07:12.170Z,931.50
2018-01-18T04:08:12.160Z,931.45
2018-01-18T04:09:12.154Z,931.39
2018-01-18T04:10:12.146Z,931.47
2018-01-18T04:11:12.140Z,931.46
2018-01-18T04:12:12.134Z,931.36
2018-01-18T04:13:12.126Z,931.35
2018-01-18T04:14:12.119Z,931.37
2018-01-18T04:15:12.111Z,931.30
2018-01-18T04:16:12.106Z,931.35
2018-01-18T04:17:12.098Z,931.26
2018-01-18T04:18:12.093Z,931.28
2018-01-18T04:19:12.093Z,931.32
2018-01-18T04:20:12.079Z,931.23
2018-01-18T04:21:12.072Z,931.32
2018-01-18T04:22:12.065Z,931.25
2018-01-18T04:23:12.059Z,931.33
2018-01-18T04:24:12.053Z,931.38
2018-01-18T04:25:12.046Z,931.39
2018-01-18T04:26:12.040Z,931.30
2018-01-18T04:27:12.032Z,931.35
2018-01-18T04:28:12.026Z,931.33
2018-01-18T04:29:12.020Z,931.25
2018-01-18T04:30:12.013Z,931.35
2018-01-18T04:31:12.006Z,931.32
2018-01-18T04:32:11.999Z,931.34
2018-01-18T04:33:11.993Z,931.27
2018-01-18T04:34:11.986Z,931.34
2018-01-18T04:35:11.979Z,931.30
2018-01-18T04:36:11.972Z,931.30
2018-01-18T04:37:11.966Z,931.30
2018-01-18T04:38:11.960Z,931.26
2018-01-18T04:39:11.951Z,931.27
2018-01-18T04:40:11.946Z,931.42
2018-01-18T04:41:11.940Z,931.27
2018-01-18T04:42:11.933Z,931.23
2018-01-18T04:43:11.926Z,931.34
2018-01-18T04:44:11.919Z,931.27
2018-01-18T04:45:11.913Z,931.28
2018-01-18T04:46:11.905Z,931.37
2018-01-18T04:47:11.897Z,931.37
2018-01-18T04:48:11.892Z,931.35
2018-01-18T04:49:11.885Z,931.32
2018-01-18T04:50:11.879Z,931.25
2018-01-18T04:51:11.870Z,931.17
2018-01-18T04:52:11.865Z,931.14
2018-01-18T04:53:11.863Z,931.13
2018-01-18T04:54:11.852Z,931.16
2018-01-18T04:55:11.845Z,931.23
2018-01-18T04:56:11.838Z,931.24
2018-01-18T04:57:11.831Z,931.08
2018-01-18T04:58:11.825Z,931.00
2018-01-18T04:59:11.817Z,931.08
2018-01-18T05:00:11.811Z,931.10
2018-01-18T05:01:11.803Z,931.09
2018-01-18T05:02:11.800Z,930.90
2018-01-18T05:03:11.789Z,930.86
2018-01-18T05:04:11.782Z,930.83
2018-01-18T05:05:11.776Z,930.85
2018-01-18T05:06:11.774Z,930.95
2018-01-18T05:07:11.762Z,930.90
2018-01-18T05:08:11.754Z,930.81
2018-01-18T05:09:11.749Z,930.81
2018-01-18T05:10:11.741Z,930.72
2018-01-18T05:11:11.734Z,930.75
2018-01-18T05:12:11.728Z,930.76
2018-01-18T05:13:11.720Z,930.71
2018-01-18T05:14:11.714Z,930.64
2018-01-18T05:15:11.706Z,930.61
2018-01-18T05:16:11.700Z,930.77
2018-01-18T05:17:11.692Z,930.78
2018-01-18T05:18:11.686Z,930.72
2018-01-18T05:19:11.679Z,930.62
2018-01-18T05:20:11.671Z,930.66
2018-01-18T05:21:11.665Z,930.65
2018-01-18T05:22:11.658Z,930.65
2018-01-18T05:23:11.651Z,930.59
2018-01-18T05:24:11.644Z,930.58
2018-01-18T05:25:11.637Z,930.61
2018-01-18T05:26:11.631Z,930.53
2018-01-18T05:27:11.622Z,930.51
2018-01-18T05:28:11.616Z,930.53
2018-01-18T05:29:11.608Z,930.46
2018-01-18T05:30:11.602Z,930.51
2018-01-18T05:31:11.599Z,930.48
2018-01-18T05:32:11.589Z,930.41
2018-01-18T05:33:11.582Z,930.38
2018-01-18T05:34:11.575Z,930.40
2018-01-18T05:35:11.567Z,930.40
2018-01-18T05:36:11.561Z,930.37
2018-01-18T05:37:11.554Z,930.31
2018-01-18T05:38:11.548Z,930.29
2018-01-18T05:39:11.540Z,930.28
2018-01-18T05:40:11.533Z,930.23
2018-01-18T05:41:11.527Z,930.19
2018-01-18T05:42:11.520Z,930.12
2018-01-18T05:43:11.511Z,930.14
2018-01-18T05:44:11.504Z,930.13
2018-01-18T05:45:11.499Z,930.11
2018-01-18T05:46:11.491Z,930.07
2018-01-18T05:47:11.485Z,930.06
2018-01-18T05:48:11.478Z,930.00
2018-01-18T05:49:11.470Z,930.04
2018-01-18T05:50:11.464Z,930.02
2018-01-18T05:51:11.456Z,929.94
2018-01-18T05:52:11.450Z,929.95
2018-01-18T05:53:11.443Z,929.86
2018-01-18T05:54:11.436Z,929.85
2018-01-18T05:55:11.428Z,929.81
2018-01-18T05:56:11.421Z,929.82
2018-01-18T05:57:11.415Z,929.78
2018-01-18T05:58:11.413Z,929.78
2018-01-18T05:59:11.401Z,929.75
2018-01-18T06:00:11.393Z,929.74
2018-01-18T06:01:11.386Z,929.74
2018-01-18T06:02:11.381Z,929.66
2018-01-18T06:03:11.373Z,929.69
2018-01-18T06:04:11.368Z,929.50
2018-01-18T06:05:11.360Z,929.64
2018-01-18T06:06:11.355Z,929.58
2018-01-18T06:07:11.344Z,929.56
2018-01-18T06:08:11.338Z,929.66
2018-01-18T06:09:11.332Z,929.61
2018-01-18T06:10:11.324Z,929.61
2018-01-18T06:11:11.317Z,929.52
2018-01-18T06:12:11.311Z,929.39
2018-01-18T06:13:11.303Z,929.48
2018-01-18T06:14:11.297Z,929.41
2018-01-18T06:15:11.290Z,929.40
2018-01-18T06:16:11.283Z,929.37
2018-01-18T06:17:11.276Z,929.32
2018-01-18T06:18:11.269Z,929.37
2018-01-18T06:19:11.261Z,929.40
2018-01-18T06:20:11.254Z,929.37
2018-01-18T06:21:11.249Z,929.42
2018-01-18T06:22:11.240Z,929.29
2018-01-18T06:23:11.236Z,929.31
2018-01-18T06:24:11.226Z,929.32
2018-01-18T06:25:11.221Z,929.30
2018-01-18T06:26:11.215Z,929.33
2018-01-18T06:27:11.207Z,929.24
2018-01-18T06:28:11.200Z,929.21
2018-01-18T06:29:11.193Z,929.26
2018-01-18T06:30:11.187Z,929.20
2018-01-18T06:31:11.178Z,929.21
2018-01-18T06:32:11.172Z,929.18
2018-01-18T06:33:11.167Z,929.22
2018-01-18T06:34:11.167Z,929.03
2018-01-18T06:35:11.152Z,929.02
2018-01-18T06:36:11.143Z,929.09
2018-01-18T06:37:11.136Z,929.10
2018-01-18T06:38:11.131Z,929.04
2018-01-18T06:39:11.121Z,928.98
2018-01-18T06:40:11.115Z,928.96
2018-01-18T06:41:11.107Z,928.89
2018-01-18T06:42:11.100Z,928.89
2018-01-18T06:43:11.094Z,928.93
2018-01-18T06:44:11.086Z,928.92
2018-01-18T06:45:11.080Z,928.87
2018-01-18T06:46:11.073Z,928.84
2018-01-18T06:47:11.065Z,928.81
2018-01-18T06:48:11.059Z,928.83
2018-01-18T06:49:11.057Z,928.77
2018-01-18T06:50:11.047Z,928.73
2018-01-18T06:51:11.037Z,928.76
2018-01-18T06:52:11.030Z,928.82
2018-01-18T06:53:11.023Z,928.80
2018-01-18T06:54:11.017Z,928.77
2018-01-18T06:55:11.009Z,928.74
2018-01-18T06:56:11.052Z,928.65
2018-01-18T06:57:10.996Z,928.60
2018-01-18T06:58:10.988Z,928.55
2018-01-18T06:59:10.980Z,928.53
2018-01-18T07:00:10.975Z,928.51
2018-01-18T07:01:10.971Z,928.52
2018-01-18T07:02:10.961Z,928.53
2018-01-18T07:03:10.953Z,928.53
2018-01-18T07:04:10.947Z,928.50
2018-01-18T07:05:10.940Z,928.48
2018-01-18T07:06:10.982Z,928.44
2018-01-18T07:07:10.925Z,928.53
2018-01-18T07:08:10.919Z,928.47
2018-01-18T07:09:10.912Z,928.42
2018-01-18T07:10:10.905Z,928.37
2018-01-18T07:11:10.897Z,928.35
2018-01-18T07:12:10.891Z,928.36
2018-01-18T07:13:10.884Z,928.26
2018-01-18T07:14:10.877Z,928.34
2018-01-18T07:15:10.869Z,928.29
2018-01-18T07:16:10.862Z,928.29
2018-01-18T07:17:10.854Z,928.23
2018-01-18T07:18:10.851Z,928.22
2018-01-18T07:19:10.841Z,928.26
2018-01-18T07:20:10.834Z,928.22
2018-01-18T07:21:10.827Z,928.14
2018-01-18T07:22:10.821Z,928.17
2018-01-18T07:23:10.813Z,928.14
2018-01-18T07:24:10.808Z,928.27
2018-01-18T07:25:10.801Z,928.00
2018-01-18T07:26:10.794Z,928.02
2018-01-18T07:27:10.786Z,928.01
2018-01-18T07:28:10.781Z,928.05
2018-01-18T07:29:10.774Z,928.05
2018-01-18T07:30:10.767Z,927.97
2018-01-18T07:31:10.759Z,927.93
2018-01-18T07:32:10.752Z,927.94
2018-01-18T07:33:10.747Z,927.99
2018-01-18T07:34:10.740Z,927.95
2018-01-18T07:35:10.734Z,927.94
2018-01-18T07:36:10.727Z,927.83
2018-01-18T07:37:10.720Z,927.88
2018-01-18T07:38:10.713Z,927.74
2018-01-18T07:39:10.705Z,927.73
2018-01-18T07:40:10.746Z,927.92
2018-01-18T07:41:10.692Z,927.71
2018-01-18T07:42:10.686Z,927.64
2018-01-18T07:43:10.679Z,927.68
2018-01-18T07:44:10.673Z,927.73
2018-01-18T07:45:10.666Z,927.58
2018-01-18T07:46:10.659Z,927.74
2018-01-18T07:47:10.652Z,927.65
2018-01-18T07:48:10.645Z,927.64
2018-01-18T07:49:10.638Z,927.56
2018-01-18T07:50:10.633Z,927.60
2018-01-18T07:51:10.626Z,927.58
2018-01-18T07:52:10.619Z,927.74
2018-01-18T07:53:10.614Z,927.50
2018-01-18T07:54:10.609Z,927.52
2018-01-18T07:55:10.599Z,927.46
2018-01-18T07:56:10.592Z,927.48
2018-01-18T07:57:10.586Z,927.43
2018-01-18T07:58:10.580Z,927.35
2018-01-18T07:59:10.578Z,927.50
2018-01-18T08:00:10.573Z,927.41
2018-01-18T08:01:10.560Z,927.24
2018-01-18T08:02:10.555Z,927.21
2018-01-18T08:03:10.548Z,927.28
2018-01-18T08:04:10.543Z,927.28
2018-01-18T08:05:10.535Z,927.20
2018-01-18T08:06:10.528Z,927.37
2018-01-18T08:07:10.522Z,927.31
2018-01-18T08:08:10.516Z,927.23
2018-01-18T08:09:10.510Z,927.25
2018-01-18T08:10:10.503Z,927.27
2018-01-18T08:11:10.498Z,927.24
2018-01-18T08:12:10.490Z,927.00
2018-01-18T08:13:10.484Z,926.95
2018-01-18T08:14:10.478Z,927.08
2018-01-18T08:15:10.471Z,927.10
2018-01-18T08:16:10.463Z,927.02
2018-01-18T08:17:10.458Z,927.00
2018-01-18T08:18:10.452Z,926.80
2018-01-18T08:19:10.446Z,926.83
2018-01-18T08:20:10.440Z,927.01
2018-01-18T08:21:10.432Z,926.94
2018-01-18T08:22:10.428Z,926.95
2018-01-18T08:23:10.421Z,926.84
2018-01-18T08:24:10.414Z,926.93
2018-01-18T08:25:10.408Z,926.98
2018-01-18T08:26:10.405Z,926.97
2018-01-18T08:27:10.395Z,926.88
2018-01-18T08:28:10.389Z,926.99
2018-01-18T08:29:10.384Z,926.86
2018-01-18T08:30:10.381Z,926.79
2018-01-18T08:31:10.370Z,926.68
2018-01-18T08:32:10.365Z,926.58
2018-01-18T08:33:10.359Z,926.89
2018-01-18T08:34:10.353Z,926.76
2018-01-18T08:35:10.347Z,926.79
2018-01-18T08:36:10.341Z,926.65
2018-01-18T08:37:10.338Z,927.00
2018-01-18T08:38:10.329Z,926.68
2018-01-18T08:39:10.322Z,926.61
2018-01-18T08:40:10.316Z,926.81
2018-01-18T08:41:10.310Z,926.77
2018-01-18T08:42:10.305Z,926.86
2018-01-18T08:43:10.299Z,926.95
2018-01-18T08:44:10.291Z,926.76
2018-01-18T08:45:10.286Z,926.79
2018-01-18T08:46:10.280Z,926.97
2018-01-18T08:47:10.273Z,926.75
2018-01-18T08:48:10.268Z,926.97
2018-01-18T08:49:10.261Z,926.76
2018-01-18T08:50:10.256Z,926.79
2018-01-18T08:51:10.252Z,926.77
2018-01-18T08:52:10.249Z,926.70
2018-01-18T08:53:10.239Z,926.87
2018-01-18T08:54:10.232Z,927.17
2018-01-18T08:55:10.226Z,926.85
2018-01-18T08:56:10.221Z,926.66
2018-01-18T08:57:10.215Z,926.57
2018-01-18T08:58:10.208Z,926.79
2018-01-18T08:59:10.202Z,926.61
2018-01-18T09:00:10.196Z,926.70
2018-01-18T09:01:10.192Z,926.76
2018-01-18T09:02:10.185Z,926.76
2018-01-18T09:03:10.180Z,926.53
2018-01-18T09:04:10.173Z,926.81
2018-01-18T09:05:10.168Z,926.81
2018-01-18T09:06:10.163Z,926.63
2018-01-18T09:07:10.158Z,926.65
2018-01-18T09:08:10.152Z,926.42
2018-01-18T09:09:10.146Z,926.80
2018-01-18T09:10:10.140Z,926.80
2018-01-18T09:11:10.133Z,926.48
2018-01-18T09:12:10.127Z,926.65
2018-01-18T09:13:10.123Z,926.76
2018-01-18T09:14:10.118Z,926.76
2018-01-18T09:15:10.111Z,926.71
2018-01-18T09:16:10.106Z,926.66
2018-01-18T09:17:10.102Z,926.80
2018-01-18T09:18:10.095Z,926.74
2018-01-18T09:19:10.088Z,926.81
2018-01-18T09:20:10.083Z,926.64
2018-01-18T09:21:10.078Z,926.78
2018-01-18T09:22:10.120Z,926.71
2018-01-18T09:23:10.066Z,926.81
2018-01-18T09:24:10.061Z,926.37
2018-01-18T09:25:10.056Z,926.50
2018-01-18T09:26:10.050Z,926.68
2018-01-18T09:27:10.044Z,926.70
2018-01-18T09:28:10.039Z,926.50
2018-01-18T09:29:10.033Z,926.63
2018-01-18T09:30:10.028Z,926.49
2018-01-18T09:31:10.022Z,926.66
2018-01-18T09:32:10.016Z,926.58
2018-01-18T09:33:10.012Z,926.62
2018-01-18T09:34:10.007Z,926.44
2018-01-18T09:35:10.001Z,926.29
2018-01-18T09:36:09.996Z,926.50
2018-01-18T09:37:09.991Z,926.53
2018-01-18T09:38:09.986Z,926.43
2018-01-18T09:39:09.980Z,926.41
2018-01-18T09:40:09.976Z,926.38
2018-01-18T09:41:09.971Z,926.53
2018-01-18T09:42:09.966Z,926.59
2018-01-18T09:43:09.966Z,926.56
2018-01-18T09:44:09.956Z,926.66
2018-01-18T09:45:09.954Z,926.67
2018-01-18T09:46:10.216Z,926.26
2018-01-18T09:47:09.940Z,926.57
2018-01-18T09:48:09.935Z,926.63
2018-01-18T09:49:09.939Z,926.62
2018-01-18T09:50:09.926Z,926.68
2018-01-18T09:51:09.922Z,926.54
2018-01-18T09:52:09.916Z,926.63
2018-01-18T09:53:09.912Z,926.49
2018-01-18T09:54:09.909Z,926.68
2018-01-18T09:55:09.902Z,926.52
2018-01-18T09:56:09.897Z,926.39
2018-01-18T09:57:09.892Z,926.42
2018-01-18T09:58:09.888Z,926.51
2018-01-18T09:59:09.882Z,926.45
2018-01-18T10:00:09.878Z,926.58
2018-01-18T10:01:09.874Z,926.35
2018-01-18T10:02:09.868Z,926.48
2018-01-18T10:03:09.863Z,926.53
2018-01-18T10:04:09.859Z,926.33
2018-01-18T10:05:09.854Z,926.46
2018-01-18T10:06:09.850Z,926.55
2018-01-18T10:07:09.845Z,926.51
2018-01-18T10:08:09.840Z,926.45
2018-01-18T10:09:09.836Z,926.37
2018-01-18T10:10:09.831Z,926.50
2018-01-18T10:11:09.826Z,926.18
2018-01-18T10:12:09.823Z,926.21
2018-01-18T10:13:09.818Z,926.20
2018-01-18T10:14:09.814Z,926.03
2018-01-18T10:15:09.810Z,926.39
2018-01-18T10:16:09.805Z,926.29
2018-01-18T10:17:09.802Z,926.29
2018-01-18T10:18:09.803Z,926.13
2018-01-18T10:19:09.793Z,926.39
2018-01-18T10:20:09.790Z,926.41
2018-01-18T10:21:09.786Z,926.31
2018-01-18T10:22:09.783Z,926.20
2018-01-18T10:23:09.780Z,926.46
2018-01-18T10:24:09.773Z,926.18
2018-01-18T10:25:09.771Z,926.14
2018-01-18T10:26:09.799Z,926.35
2018-01-18T10:27:09.765Z,926.12
2018-01-18T10:28:09.761Z,925.92
2018-01-18T10:29:09.759Z,926.19
2018-01-18T10:30:09.756Z,926.12
2018-01-18T10:31:09.752Z,926.48
2018-01-18T10:32:09.750Z,925.91
2018-01-18T10:33:09.747Z,926.44
2018-01-18T10:34:09.744Z,925.98
2018-01-18T10:35:09.741Z,926.15
2018-01-18T10:36:09.737Z,926.04
2018-01-18T10:37:09.736Z,925.95
2018-01-18T10:38:09.734Z,925.97
2018-01-18T10:39:09.731Z,925.81
2018-01-18T10:40:09.728Z,925.95
2018-01-18T10:41:09.727Z,926.02
2018-01-18T10:42:09.725Z,925.90
2018-01-18T10:43:09.723Z,925.91
2018-01-18T10:44:09.721Z,925.97
2018-01-18T10:45:09.720Z,925.61
2018-01-18T10:46:09.722Z,926.03
2018-01-18T10:47:09.721Z,925.99
2018-01-18T10:48:09.721Z,925.87
2018-01-18T10:49:09.723Z,926.06
2018-01-18T10:50:09.725Z,925.89
2018-01-18T10:51:09.726Z,926.05
2018-01-18T10:52:09.728Z,925.82
2018-01-18T10:53:09.731Z,925.80
2018-01-18T10:54:09.733Z,925.79
2018-01-18T10:55:09.734Z,925.73
2018-01-18T10:56:09.738Z,925.72
2018-01-18T10:57:09.739Z,925.72
2018-01-18T10:58:09.742Z,925.62
2018-01-18T10:59:09.743Z,925.77
2018-01-18T11:00:09.746Z,925.74
2018-01-18T11:01:09.749Z,925.62
2018-01-18T11:02:09.756Z,925.61
2018-01-18T11:03:09.752Z,925.39
2018-01-18T11:04:09.753Z,925.51
2018-01-18T11:05:09.755Z,925.64
2018-01-18T11:06:09.756Z,925.68
2018-01-18T11:07:09.758Z,925.74
2018-01-18T11:08:09.760Z,925.64
2018-01-18T11:09:09.830Z,925.38
2018-01-18T11:10:09.763Z,925.52
2018-01-18T11:11:09.765Z,925.45
2018-01-18T11:12:09.767Z,925.36
2018-01-18T11:13:09.770Z,925.35
2018-01-18T11:14:09.772Z,925.49
2018-01-18T11:15:09.772Z,925.37
2018-01-18T11:16:09.775Z,925.34
2018-01-18T11:17:09.776Z,925.53
2018-01-18T11:18:09.778Z,925.44
2018-01-18T11:19:09.778Z,925.36
2018-01-18T11:20:09.782Z,925.47
2018-01-18T11:21:09.782Z,925.32
2018-01-18T11:22:09.785Z,925.74
2018-01-18T11:23:09.785Z,925.50
2018-01-18T11:24:09.787Z,925.26
2018-01-18T11:25:09.790Z,925.37
2018-01-18T11:26:09.797Z,925.47
2018-01-18T11:27:09.793Z,925.51
2018-01-18T11:28:09.801Z,925.54
2018-01-18T11:29:09.802Z,925.58
2018-01-18T11:30:09.800Z,925.56
2018-01-18T11:31:09.800Z,925.28
2018-01-18T11:32:09.803Z,925.13
2018-01-18T11:33:09.804Z,925.48
2018-01-18T11:34:09.806Z,925.41
2018-01-18T11:35:09.807Z,925.44
2018-01-18T11:36:09.810Z,925.61
2018-01-18T11:37:09.811Z,925.29
2018-01-18T11:38:09.811Z,925.11
2018-01-18T11:39:09.813Z,925.16
2018-01-18T11:40:09.814Z,925.30
2018-01-18T11:41:09.817Z,925.12
2018-01-18T11:42:09.818Z,924.81
2018-01-18T11:43:09.819Z,925.39
2018-01-18T11:44:09.820Z,924.91
2018-01-18T11:45:09.824Z,925.02
2018-01-18T11:46:09.823Z,925.01
2018-01-18T11:47:09.821Z,925.37
2018-01-18T11:48:09.825Z,924.79
2018-01-18T11:49:09.825Z,925.15
2018-01-18T11:50:09.824Z,924.84
2018-01-18T11:51:09.825Z,924.93
2018-01-18T11:52:09.826Z,924.97
2018-01-18T11:53:09.825Z,925.51
2018-01-18T11:54:09.827Z,925.55
2018-01-18T11:55:09.827Z,925.06
2018-01-18T11:56:09.827Z,925.03
2018-01-18T11:57:09.827Z,925.13
2018-01-18T11:58:09.828Z,924.87
2018-01-18T11:59:09.828Z,925.00
2018-01-18T12:00:09.828Z,924.97
2018-01-18T12:01:09.834Z,925.15
2018-01-18T12:02:09.832Z,925.11
2018-01-18T12:03:09.833Z,924.91
2018-01-18T12:04:09.833Z,924.78
2018-01-18T12:05:09.835Z,925.09
2018-01-18T12:06:09.838Z,925.10
2018-01-18T12:07:09.837Z,925.30
2018-01-18T12:08:09.841Z,925.08
2018-01-18T12:09:09.842Z,924.66
2018-01-18T12:10:09.844Z,925.10
2018-01-18T12:11:09.845Z,924.73
2018-01-18T12:12:09.846Z,924.70
2018-01-18T12:13:09.849Z,924.50
2018-01-18T12:14:09.850Z,925.02
2018-01-18T12:15:09.858Z,924.99
2018-01-18T12:16:09.853Z,925.01
2018-01-18T12:17:09.855Z,924.59
2018-01-18T12:18:09.856Z,924.69
2018-01-18T12:19:09.857Z,924.74
2018-01-18T12:20:09.858Z,924.96
2018-01-18T12:21:09.862Z,924.63
2018-01-18T12:22:09.860Z,924.75
2018-01-18T12:23:09.860Z,924.89
2018-01-18T12:24:09.861Z,924.72
2018-01-18T12:25:09.861Z,924.93
2018-01-18T12:26:09.861Z,924.92
2018-01-18T12:27:09.860Z,924.62
2018-01-18T12:28:09.859Z,924.54